sensor_id;sensor_type;location;lat;lon;timestamp;P1;durP1;ratioP1;P2;durP2;ratioP2
16866;SDS011;8550;52.596;13.320;2023-05-20T00:04:34;5.07;;;1.77;;
16866;SDS011;8550;52.596;13.320;2023-05-20T00:09:37;4.72;;;1.33;;
16866;SDS011;8550;52.596;13.320;2023-05-20T00:14:39;5.47;;;1.33;;
16866;SDS011;8550;52.596;13.320;2023-05-20T00:19:42;4.60;;;1.40;;
16866;SDS011;8550;52.596;13.320;2023-05-20T00:24:44;3.90;;;1.45;;
16866;SDS011;8550;52.596;13.320;2023-05-20T00:29:46;3.37;;;1.30;;
16866;SDS011;8550;52.596;13.320;2023-05-20T00:34:55;3.78;;;1.60;;
16866;SDS011;8550;52.596;13.320;2023-05-20T00:39:58;7.43;;;1.90;;
16866;SDS011;8550;52.596;13.320;2023-05-20T00:45:00;5.47;;;1.50;;
16866;SDS011;8550;52.596;13.320;2023-05-20T00:50:03;4.27;;;1.60;;
16866;SDS011;8550;52.596;13.320;2023-05-20T00:55:06;4.30;;;1.63;;
16866;SDS011;8550;52.596;13.320;2023-05-20T01:00:09;4.93;;;1.40;;
16866;SDS011;8550;52.596;13.320;2023-05-20T01:05:14;5.43;;;1.50;;
16866;SDS011;8550;52.596;13.320;2023-05-20T01:10:16;3.90;;;1.17;;
16866;SDS011;8550;52.596;13.320;2023-05-20T01:15:18;5.80;;;1.55;;
16866;SDS011;8550;52.596;13.320;2023-05-20T01:20:25;4.83;;;1.60;;
16866;SDS011;8550;52.596;13.320;2023-05-20T01:25:30;11.43;;;1.95;;
16866;SDS011;8550;52.596;13.320;2023-05-20T01:30:34;5.70;;;1.75;;
16866;SDS011;8550;52.596;13.320;2023-05-20T01:35:41;3.97;;;1.50;;
16866;SDS011;8550;52.596;13.320;2023-05-20T01:40:44;4.43;;;1.73;;
16866;SDS011;8550;52.596;13.320;2023-05-20T01:45:47;4.30;;;1.92;;
16866;SDS011;8550;52.596;13.320;2023-05-20T01:50:49;10.68;;;1.70;;
16866;SDS011;8550;52.596;13.320;2023-05-20T01:55:52;4.00;;;1.40;;
16866;SDS011;8550;52.596;13.320;2023-05-20T02:00:54;4.18;;;1.02;;
16866;SDS011;8550;52.596;13.320;2023-05-20T02:05:56;4.60;;;1.77;;
16866;SDS011;8550;52.596;13.320;2023-05-20T02:10:59;4.17;;;1.60;;
16866;SDS011;8550;52.596;13.320;2023-05-20T02:16:02;6.57;;;1.70;;
16866;SDS011;8550;52.596;13.320;2023-05-20T02:21:04;7.50;;;1.52;;
16866;SDS011;8550;52.596;13.320;2023-05-20T02:26:07;4.17;;;1.50;;
16866;SDS011;8550;52.596;13.320;2023-05-20T02:31:09;4.07;;;1.50;;
16866;SDS011;8550;52.596;13.320;2023-05-20T02:36:11;4.65;;;1.70;;
16866;SDS011;8550;52.596;13.320;2023-05-20T02:41:15;4.00;;;1.67;;
16866;SDS011;8550;52.596;13.320;2023-05-20T02:46:16;5.53;;;1.47;;
16866;SDS011;8550;52.596;13.320;2023-05-20T02:51:18;4.97;;;1.45;;
16866;SDS011;8550;52.596;13.320;2023-05-20T02:56:22;4.93;;;1.48;;
16866;SDS011;8550;52.596;13.320;2023-05-20T03:01:24;3.97;;;1.73;;
16866;SDS011;8550;52.596;13.320;2023-05-20T03:06:26;6.13;;;1.70;;
16866;SDS011;8550;52.596;13.320;2023-05-20T03:11:30;5.15;;;2.10;;
16866;SDS011;8550;52.596;13.320;2023-05-20T03:16:32;4.80;;;1.87;;
16866;SDS011;8550;52.596;13.320;2023-05-20T03:21:34;3.90;;;1.53;;
16866;SDS011;8550;52.596;13.320;2023-05-20T03:26:37;7.32;;;1.90;;
16866;SDS011;8550;52.596;13.320;2023-05-20T03:31:42;5.50;;;2.33;;
16866;SDS011;8550;52.596;13.320;2023-05-20T03:36:44;3.70;;;1.60;;
16866;SDS011;8550;52.596;13.320;2023-05-20T03:41:48;5.70;;;1.40;;
16866;SDS011;8550;52.596;13.320;2023-05-20T03:46:50;4.72;;;1.75;;
16866;SDS011;8550;52.596;13.320;2023-05-20T03:51:52;4.27;;;1.67;;
16866;SDS011;8550;52.596;13.320;2023-05-20T03:56:55;6.13;;;2.30;;
16866;SDS011;8550;52.596;13.320;2023-05-20T04:01:59;6.53;;;1.73;;
16866;SDS011;8550;52.596;13.320;2023-05-20T04:07:01;9.23;;;2.03;;
16866;SDS011;8550;52.596;13.320;2023-05-20T04:12:05;4.80;;;1.93;;
16866;SDS011;8550;52.596;13.320;2023-05-20T04:17:07;5.45;;;2.30;;
16866;SDS011;8550;52.596;13.320;2023-05-20T04:22:09;7.15;;;2.13;;
16866;SDS011;8550;52.596;13.320;2023-05-20T04:27:12;4.93;;;1.70;;
16866;SDS011;8550;52.596;13.320;2023-05-20T04:32:16;6.95;;;1.98;;
16866;SDS011;8550;52.596;13.320;2023-05-20T04:37:18;6.40;;;1.83;;
16866;SDS011;8550;52.596;13.320;2023-05-20T04:42:22;6.03;;;2.00;;
16866;SDS011;8550;52.596;13.320;2023-05-20T04:47:24;5.30;;;1.70;;
16866;SDS011;8550;52.596;13.320;2023-05-20T04:52:26;4.40;;;1.63;;
16866;SDS011;8550;52.596;13.320;2023-05-20T04:57:29;5.13;;;1.90;;
16866;SDS011;8550;52.596;13.320;2023-05-20T05:02:34;5.77;;;2.07;;
16866;SDS011;8550;52.596;13.320;2023-05-20T05:07:36;5.90;;;2.33;;
16866;SDS011;8550;52.596;13.320;2023-05-20T05:12:39;5.13;;;2.15;;
16866;SDS011;8550;52.596;13.320;2023-05-20T05:17:41;5.47;;;2.20;;
16866;SDS011;8550;52.596;13.320;2023-05-20T05:22:43;5.00;;;1.70;;
16866;SDS011;8550;52.596;13.320;2023-05-20T05:27:47;6.15;;;2.08;;
16866;SDS011;8550;52.596;13.320;2023-05-20T05:32:50;8.87;;;2.40;;
16866;SDS011;8550;52.596;13.320;2023-05-20T05:37:52;5.30;;;2.00;;
16866;SDS011;8550;52.596;13.320;2023-05-20T05:42:55;6.32;;;2.60;;
16866;SDS011;8550;52.596;13.320;2023-05-20T05:47:57;5.47;;;2.07;;
16866;SDS011;8550;52.596;13.320;2023-05-20T05:52:59;6.07;;;2.03;;
16866;SDS011;8550;52.596;13.320;2023-05-20T05:58:03;5.68;;;2.38;;
16866;SDS011;8550;52.596;13.320;2023-05-20T06:03:05;8.00;;;2.20;;
16866;SDS011;8550;52.596;13.320;2023-05-20T06:08:08;8.93;;;2.60;;
16866;SDS011;8550;52.596;13.320;2023-05-20T06:13:12;4.90;;;2.50;;
16866;SDS011;8550;52.596;13.320;2023-05-20T06:18:14;4.88;;;1.92;;
16866;SDS011;8550;52.596;13.320;2023-05-20T06:23:17;5.83;;;2.23;;
16866;SDS011;8550;52.596;13.320;2023-05-20T06:28:20;5.97;;;1.95;;
16866;SDS011;8550;52.596;13.320;2023-05-20T06:33:22;4.28;;;1.95;;
16866;SDS011;8550;52.596;13.320;2023-05-20T06:38:27;6.03;;;2.57;;
16866;SDS011;8550;52.596;13.320;2023-05-20T06:43:31;6.47;;;2.70;;
16866;SDS011;8550;52.596;13.320;2023-05-20T06:48:34;6.53;;;2.65;;
16866;SDS011;8550;52.596;13.320;2023-05-20T06:53:36;5.95;;;2.22;;
16866;SDS011;8550;52.596;13.320;2023-05-20T06:58:40;5.23;;;2.37;;
16866;SDS011;8550;52.596;13.320;2023-05-20T07:03:43;5.85;;;2.53;;
16866;SDS011;8550;52.596;13.320;2023-05-20T07:08:45;6.40;;;2.42;;
16866;SDS011;8550;52.596;13.320;2023-05-20T07:13:48;5.47;;;2.23;;
16866;SDS011;8550;52.596;13.320;2023-05-20T07:18:50;5.35;;;2.63;;
16866;SDS011;8550;52.596;13.320;2023-05-20T07:23:52;11.30;;;2.95;;
16866;SDS011;8550;52.596;13.320;2023-05-20T07:28:56;8.73;;;2.70;;
16866;SDS011;8550;52.596;13.320;2023-05-20T07:33:58;5.97;;;2.30;;
16866;SDS011;8550;52.596;13.320;2023-05-20T07:39:01;4.68;;;2.00;;
16866;SDS011;8550;52.596;13.320;2023-05-20T07:44:05;7.18;;;2.63;;
16866;SDS011;8550;52.596;13.320;2023-05-20T07:49:07;6.47;;;2.07;;
16866;SDS011;8550;52.596;13.320;2023-05-20T07:54:09;6.03;;;2.40;;
16866;SDS011;8550;52.596;13.320;2023-05-20T07:59:13;8.90;;;2.53;;
16866;SDS011;8550;52.596;13.320;2023-05-20T08:04:15;4.47;;;2.00;;
16866;SDS011;8550;52.596;13.320;2023-05-20T08:09:17;6.18;;;2.63;;
16866;SDS011;8550;52.596;13.320;2023-05-20T08:14:20;5.53;;;2.72;;
16866;SDS011;8550;52.596;13.320;2023-05-20T08:19:22;7.13;;;2.33;;
16866;SDS011;8550;52.596;13.320;2023-05-20T08:24:24;5.83;;;3.23;;
16866;SDS011;8550;52.596;13.320;2023-05-20T08:29:28;6.18;;;2.55;;
16866;SDS011;8550;52.596;13.320;2023-05-20T08:34:30;6.15;;;2.83;;
16866;SDS011;8550;52.596;13.320;2023-05-20T08:39:31;5.37;;;2.47;;
16866;SDS011;8550;52.596;13.320;2023-05-20T08:44:35;5.40;;;2.58;;
16866;SDS011;8550;52.596;13.320;2023-05-20T08:49:37;6.30;;;2.83;;
16866;SDS011;8550;52.596;13.320;2023-05-20T08:54:42;5.73;;;2.37;;
16866;SDS011;8550;52.596;13.320;2023-05-20T08:59:47;7.72;;;2.13;;
16866;SDS011;8550;52.596;13.320;2023-05-20T09:04:50;6.75;;;2.15;;
16866;SDS011;8550;52.596;13.320;2023-05-20T09:09:53;6.57;;;2.30;;
16866;SDS011;8550;52.596;13.320;2023-05-20T09:14:56;5.80;;;2.33;;
16866;SDS011;8550;52.596;13.320;2023-05-20T09:19:58;5.88;;;2.78;;
16866;SDS011;8550;52.596;13.320;2023-05-20T09:25:00;6.65;;;2.50;;
16866;SDS011;8550;52.596;13.320;2023-05-20T09:30:05;5.83;;;2.50;;
16866;SDS011;8550;52.596;13.320;2023-05-20T09:35:07;5.35;;;2.15;;
16866;SDS011;8550;52.596;13.320;2023-05-20T09:40:13;5.07;;;2.42;;
16866;SDS011;8550;52.596;13.320;2023-05-20T09:45:18;5.77;;;2.97;;
16866;SDS011;8550;52.596;13.320;2023-05-20T09:50:21;6.75;;;2.63;;
16866;SDS011;8550;52.596;13.320;2023-05-20T09:55:24;7.57;;;2.80;;
16866;SDS011;8550;52.596;13.320;2023-05-20T10:00:27;4.87;;;2.50;;
16866;SDS011;8550;52.596;13.320;2023-05-20T10:05:32;7.10;;;2.80;;
16866;SDS011;8550;52.596;13.320;2023-05-20T10:10:40;6.28;;;3.13;;
16866;SDS011;8550;52.596;13.320;2023-05-20T10:15:50;6.95;;;3.40;;
16866;SDS011;8550;52.596;13.320;2023-05-20T10:20:59;5.83;;;2.67;;
16866;SDS011;8550;52.596;13.320;2023-05-20T10:26:04;8.68;;;3.38;;
16866;SDS011;8550;52.596;13.320;2023-05-20T10:31:15;6.85;;;3.30;;
16866;SDS011;8550;52.596;13.320;2023-05-20T10:36:21;7.40;;;2.70;;
16866;SDS011;8550;52.596;13.320;2023-05-20T10:41:25;6.10;;;3.00;;
16866;SDS011;8550;52.596;13.320;2023-05-20T10:46:31;10.65;;;3.50;;
16866;SDS011;8550;52.596;13.320;2023-05-20T10:51:34;7.03;;;3.43;;
16866;SDS011;8550;52.596;13.320;2023-05-20T10:56:38;11.97;;;3.40;;
16866;SDS011;8550;52.596;13.320;2023-05-20T11:01:52;9.40;;;3.28;;
16866;SDS011;8550;52.596;13.320;2023-05-20T11:06:55;6.97;;;3.30;;
16866;SDS011;8550;52.596;13.320;2023-05-20T11:11:58;10.30;;;3.10;;
16866;SDS011;8550;52.596;13.320;2023-05-20T11:17:01;8.02;;;3.33;;
16866;SDS011;8550;52.596;13.320;2023-05-20T11:22:05;9.82;;;4.22;;
16866;SDS011;8550;52.596;13.320;2023-05-20T11:27:08;8.53;;;3.80;;
16866;SDS011;8550;52.596;13.320;2023-05-20T11:32:11;9.52;;;3.95;;
16866;SDS011;8550;52.596;13.320;2023-05-20T11:37:13;9.85;;;4.05;;
16866;SDS011;8550;52.596;13.320;2023-05-20T11:42:16;6.93;;;3.50;;
16866;SDS011;8550;52.596;13.320;2023-05-20T11:47:24;8.80;;;3.50;;
16866;SDS011;8550;52.596;13.320;2023-05-20T11:52:27;8.80;;;3.60;;
16866;SDS011;8550;52.596;13.320;2023-05-20T11:57:29;7.85;;;3.83;;
16866;SDS011;8550;52.596;13.320;2023-05-20T12:02:32;10.40;;;3.90;;
16866;SDS011;8550;52.596;13.320;2023-05-20T12:07:35;7.55;;;4.05;;
16866;SDS011;8550;52.596;13.320;2023-05-20T12:12:37;7.10;;;3.65;;
16866;SDS011;8550;52.596;13.320;2023-05-20T12:17:45;16.30;;;4.20;;
16866;SDS011;8550;52.596;13.320;2023-05-20T12:22:48;8.88;;;3.50;;
16866;SDS011;8550;52.596;13.320;2023-05-20T12:27:50;7.18;;;3.72;;
16866;SDS011;8550;52.596;13.320;2023-05-20T12:32:54;9.63;;;4.33;;
16866;SDS011;8550;52.596;13.320;2023-05-20T12:37:56;7.43;;;4.27;;
16866;SDS011;8550;52.596;13.320;2023-05-20T12:43:00;7.32;;;4.07;;
16866;SDS011;8550;52.596;13.320;2023-05-20T12:48:04;6.97;;;3.97;;
16866;SDS011;8550;52.596;13.320;2023-05-20T12:53:07;6.83;;;3.87;;
16866;SDS011;8550;52.596;13.320;2023-05-20T12:58:09;7.25;;;4.00;;
16866;SDS011;8550;52.596;13.320;2023-05-20T13:03:12;8.52;;;4.47;;
16866;SDS011;8550;52.596;13.320;2023-05-20T13:08:14;6.73;;;4.03;;
16866;SDS011;8550;52.596;13.320;2023-05-20T13:13:16;10.70;;;4.72;;
16866;SDS011;8550;52.596;13.320;2023-05-20T13:18:22;7.07;;;3.75;;
16866;SDS011;8550;52.596;13.320;2023-05-20T13:23:24;7.57;;;3.83;;
16866;SDS011;8550;52.596;13.320;2023-05-20T13:28:26;7.93;;;3.73;;
16866;SDS011;8550;52.596;13.320;2023-05-20T13:33:29;9.73;;;4.10;;
16866;SDS011;8550;52.596;13.320;2023-05-20T13:38:31;8.95;;;4.05;;
16866;SDS011;8550;52.596;13.320;2023-05-20T13:43:33;7.07;;;3.87;;
16866;SDS011;8550;52.596;13.320;2023-05-20T13:48:37;7.65;;;4.13;;
16866;SDS011;8550;52.596;13.320;2023-05-20T13:53:38;7.30;;;4.45;;
16866;SDS011;8550;52.596;13.320;2023-05-20T13:58:40;24.83;;;16.37;;
16866;SDS011;8550;52.596;13.320;2023-05-20T14:03:44;7.43;;;4.30;;
16866;SDS011;8550;52.596;13.320;2023-05-20T14:08:46;6.78;;;3.88;;
16866;SDS011;8550;52.596;13.320;2023-05-20T14:13:48;9.73;;;4.50;;
16866;SDS011;8550;52.596;13.320;2023-05-20T14:18:51;6.97;;;4.10;;
16866;SDS011;8550;52.596;13.320;2023-05-20T14:23:53;6.78;;;3.95;;
16866;SDS011;8550;52.596;13.320;2023-05-20T14:28:55;6.38;;;4.10;;
16866;SDS011;8550;52.596;13.320;2023-05-20T14:33:58;7.03;;;4.47;;
16866;SDS011;8550;52.596;13.320;2023-05-20T14:39:00;8.88;;;4.70;;
16866;SDS011;8550;52.596;13.320;2023-05-20T14:44:02;7.35;;;3.88;;
16866;SDS011;8550;52.596;13.320;2023-05-20T14:49:06;8.53;;;4.37;;
16866;SDS011;8550;52.596;13.320;2023-05-20T14:54:08;7.90;;;4.97;;
16866;SDS011;8550;52.596;13.320;2023-05-20T14:59:10;6.13;;;3.28;;
16866;SDS011;8550;52.596;13.320;2023-05-20T15:04:13;8.00;;;3.87;;
16866;SDS011;8550;52.596;13.320;2023-05-20T15:09:15;8.93;;;5.63;;
16866;SDS011;8550;52.596;13.320;2023-05-20T15:14:17;8.10;;;4.05;;
16866;SDS011;8550;52.596;13.320;2023-05-20T15:19:21;9.77;;;4.18;;
16866;SDS011;8550;52.596;13.320;2023-05-20T15:24:23;8.03;;;3.63;;
16866;SDS011;8550;52.596;13.320;2023-05-20T15:29:25;7.00;;;4.10;;
16866;SDS011;8550;52.596;13.320;2023-05-20T15:34:28;8.90;;;3.60;;
16866;SDS011;8550;52.596;13.320;2023-05-20T15:39:30;8.77;;;3.87;;
16866;SDS011;8550;52.596;13.320;2023-05-20T15:44:32;9.30;;;3.78;;
16866;SDS011;8550;52.596;13.320;2023-05-20T15:49:36;7.95;;;4.10;;
16866;SDS011;8550;52.596;13.320;2023-05-20T15:54:38;7.13;;;3.77;;
16866;SDS011;8550;52.596;13.320;2023-05-20T15:59:40;6.43;;;3.33;;
16866;SDS011;8550;52.596;13.320;2023-05-20T16:04:43;7.15;;;3.45;;
16866;SDS011;8550;52.596;13.320;2023-05-20T16:09:45;8.02;;;4.53;;
16866;SDS011;8550;52.596;13.320;2023-05-20T16:14:47;6.07;;;2.90;;
16866;SDS011;8550;52.596;13.320;2023-05-20T16:19:50;7.95;;;3.55;;
16866;SDS011;8550;52.596;13.320;2023-05-20T16:24:53;10.45;;;3.60;;
16866;SDS011;8550;52.596;13.320;2023-05-20T16:29:56;5.60;;;3.13;;
16866;SDS011;8550;52.596;13.320;2023-05-20T16:34:59;6.72;;;3.53;;
16866;SDS011;8550;52.596;13.320;2023-05-20T16:40:01;8.88;;;3.70;;
16866;SDS011;8550;52.596;13.320;2023-05-20T16:45:04;7.37;;;3.80;;
16866;SDS011;8550;52.596;13.320;2023-05-20T16:50:08;6.00;;;3.23;;
16866;SDS011;8550;52.596;13.320;2023-05-20T16:55:10;8.27;;;3.55;;
16866;SDS011;8550;52.596;13.320;2023-05-20T17:00:13;7.28;;;4.13;;
16866;SDS011;8550;52.596;13.320;2023-05-20T17:05:16;6.27;;;3.10;;
16866;SDS011;8550;52.596;13.320;2023-05-20T17:10:18;9.50;;;3.05;;
16866;SDS011;8550;52.596;13.320;2023-05-20T17:15:20;5.80;;;3.35;;
16866;SDS011;8550;52.596;13.320;2023-05-20T17:20:24;5.80;;;3.23;;
16866;SDS011;8550;52.596;13.320;2023-05-20T17:25:26;8.02;;;4.38;;
16866;SDS011;8550;52.596;13.320;2023-05-20T17:30:28;9.57;;;3.40;;
16866;SDS011;8550;52.596;13.320;2023-05-20T17:35:31;6.47;;;3.13;;
16866;SDS011;8550;52.596;13.320;2023-05-20T17:40:33;7.20;;;3.10;;
16866;SDS011;8550;52.596;13.320;2023-05-20T17:45:35;6.22;;;3.60;;
16866;SDS011;8550;52.596;13.320;2023-05-20T17:50:38;6.00;;;2.97;;
16866;SDS011;8550;52.596;13.320;2023-05-20T17:55:40;6.37;;;3.33;;
16866;SDS011;8550;52.596;13.320;2023-05-20T18:00:46;7.13;;;3.50;;
16866;SDS011;8550;52.596;13.320;2023-05-20T18:05:49;6.80;;;3.38;;
16866;SDS011;8550;52.596;13.320;2023-05-20T18:10:51;6.33;;;3.50;;
16866;SDS011;8550;52.596;13.320;2023-05-20T18:15:53;7.90;;;3.45;;
16866;SDS011;8550;52.596;13.320;2023-05-20T18:20:56;7.18;;;3.25;;
16866;SDS011;8550;52.596;13.320;2023-05-20T18:25:58;12.67;;;3.53;;
16866;SDS011;8550;52.596;13.320;2023-05-20T18:31:05;7.33;;;3.93;;
16866;SDS011;8550;52.596;13.320;2023-05-20T18:36:08;24.50;;;12.63;;
16866;SDS011;8550;52.596;13.320;2023-05-20T18:41:10;8.07;;;4.63;;
16866;SDS011;8550;52.596;13.320;2023-05-20T18:46:12;7.80;;;4.20;;
16866;SDS011;8550;52.596;13.320;2023-05-20T18:51:16;7.05;;;3.88;;
16866;SDS011;8550;52.596;13.320;2023-05-20T18:56:18;7.00;;;3.50;;
16866;SDS011;8550;52.596;13.320;2023-05-20T19:01:20;6.40;;;3.53;;
16866;SDS011;8550;52.596;13.320;2023-05-20T19:06:24;7.85;;;3.83;;
16866;SDS011;8550;52.596;13.320;2023-05-20T19:11:26;8.77;;;3.83;;
16866;SDS011;8550;52.596;13.320;2023-05-20T19:16:28;7.83;;;3.97;;
16866;SDS011;8550;52.596;13.320;2023-05-20T19:21:31;10.27;;;4.40;;
16866;SDS011;8550;52.596;13.320;2023-05-20T19:26:33;9.55;;;4.78;;
16866;SDS011;8550;52.596;13.320;2023-05-20T19:31:35;8.63;;;3.95;;
16866;SDS011;8550;52.596;13.320;2023-05-20T19:36:41;7.23;;;3.67;;
16866;SDS011;8550;52.596;13.320;2023-05-20T19:41:43;8.35;;;4.45;;
16866;SDS011;8550;52.596;13.320;2023-05-20T19:46:47;7.05;;;3.45;;
16866;SDS011;8550;52.596;13.320;2023-05-20T19:51:54;7.50;;;4.10;;
16866;SDS011;8550;52.596;13.320;2023-05-20T19:56:59;8.38;;;4.10;;
16866;SDS011;8550;52.596;13.320;2023-05-20T20:02:01;8.50;;;4.38;;
16866;SDS011;8550;52.596;13.320;2023-05-20T20:07:06;9.13;;;4.17;;
16866;SDS011;8550;52.596;13.320;2023-05-20T20:12:11;8.10;;;4.60;;
16866;SDS011;8550;52.596;13.320;2023-05-20T20:17:16;11.52;;;4.88;;
16866;SDS011;8550;52.596;13.320;2023-05-20T20:22:19;9.68;;;4.68;;
16866;SDS011;8550;52.596;13.320;2023-05-20T20:27:21;9.07;;;4.47;;
16866;SDS011;8550;52.596;13.320;2023-05-20T20:32:23;10.27;;;5.82;;
16866;SDS011;8550;52.596;13.320;2023-05-20T20:37:27;8.45;;;4.65;;
16866;SDS011;8550;52.596;13.320;2023-05-20T20:42:29;8.10;;;5.07;;
16866;SDS011;8550;52.596;13.320;2023-05-20T20:47:32;8.50;;;4.85;;
16866;SDS011;8550;52.596;13.320;2023-05-20T20:52:35;9.30;;;4.70;;
16866;SDS011;8550;52.596;13.320;2023-05-20T20:57:42;8.93;;;5.07;;
16866;SDS011;8550;52.596;13.320;2023-05-20T21:02:47;13.00;;;5.57;;
16866;SDS011;8550;52.596;13.320;2023-05-20T21:07:50;8.68;;;4.70;;
16866;SDS011;8550;52.596;13.320;2023-05-20T21:12:57;7.80;;;5.10;;
16866;SDS011;8550;52.596;13.320;2023-05-20T21:18:01;9.60;;;4.90;;
16866;SDS011;8550;52.596;13.320;2023-05-20T21:23:05;10.02;;;5.78;;
16866;SDS011;8550;52.596;13.320;2023-05-20T21:28:07;10.32;;;5.57;;
16866;SDS011;8550;52.596;13.320;2023-05-20T21:33:09;8.53;;;5.40;;
16866;SDS011;8550;52.596;13.320;2023-05-20T21:38:12;11.90;;;5.15;;
16866;SDS011;8550;52.596;13.320;2023-05-20T21:43:16;7.82;;;5.57;;
16866;SDS011;8550;52.596;13.320;2023-05-20T21:48:18;11.93;;;6.20;;
16866;SDS011;8550;52.596;13.320;2023-05-20T21:53:21;8.23;;;5.53;;
16866;SDS011;8550;52.596;13.320;2023-05-20T21:58:23;10.68;;;5.78;;
16866;SDS011;8550;52.596;13.320;2023-05-20T22:03:25;9.35;;;5.53;;
16866;SDS011;8550;52.596;13.320;2023-05-20T22:08:29;8.07;;;5.70;;
16866;SDS011;8550;52.596;13.320;2023-05-20T22:13:33;11.80;;;6.53;;
16866;SDS011;8550;52.596;13.320;2023-05-20T22:18:40;9.70;;;5.63;;
16866;SDS011;8550;52.596;13.320;2023-05-20T22:23:43;9.40;;;6.13;;
16866;SDS011;8550;52.596;13.320;2023-05-20T22:28:45;12.25;;;6.90;;
16866;SDS011;8550;52.596;13.320;2023-05-20T22:33:47;11.50;;;6.60;;
16866;SDS011;8550;52.596;13.320;2023-05-20T22:38:50;9.50;;;6.27;;
16866;SDS011;8550;52.596;13.320;2023-05-20T22:43:52;12.60;;;7.07;;
16866;SDS011;8550;52.596;13.320;2023-05-20T22:48:55;11.10;;;7.03;;
16866;SDS011;8550;52.596;13.320;2023-05-20T22:53:59;12.98;;;6.90;;
16866;SDS011;8550;52.596;13.320;2023-05-20T22:59:01;11.90;;;7.57;;
16866;SDS011;8550;52.596;13.320;2023-05-20T23:04:03;14.35;;;8.48;;
16866;SDS011;8550;52.596;13.320;2023-05-20T23:09:06;14.60;;;7.47;;
16866;SDS011;8550;52.596;13.320;2023-05-20T23:14:08;14.03;;;7.20;;
16866;SDS011;8550;52.596;13.320;2023-05-20T23:19:13;14.07;;;6.95;;
16866;SDS011;8550;52.596;13.320;2023-05-20T23:24:17;13.40;;;7.60;;
16866;SDS011;8550;52.596;13.320;2023-05-20T23:29:19;13.20;;;8.37;;
16866;SDS011;8550;52.596;13.320;2023-05-20T23:34:22;12.30;;;7.43;;
16866;SDS011;8550;52.596;13.320;2023-05-20T23:39:27;11.10;;;6.68;;
16866;SDS011;8550;52.596;13.320;2023-05-20T23:44:29;13.27;;;7.70;;
16866;SDS011;8550;52.596;13.320;2023-05-20T23:49:31;15.03;;;7.20;;
16866;SDS011;8550;52.596;13.320;2023-05-20T23:54:34;14.07;;;7.55;;
16866;SDS011;8550;52.596;13.320;2023-05-20T23:59:36;13.75;;;7.55;;
